Jenkins, Missouri
Current Conditions -  °F | °C
As of 7:15 AM on Friday 24 Oct 2014 (Local Time) from KHFJ Reporting Station
Scattered Clouds Scattered Clouds  
Wind Chill: 50°   Ceiling: Unl
Heat Index: 50°   Visibility: 10mi
Dew Point: 48°   Wind: 5mph
Humidity: 94%   Direction: 160°SSE
Pressure: 30.12"   Gusts: NA
Location:  36.8623°N, 93.6772°W
Report Text: KHFJ 241215Z AUTO 16004KT 10SM SCT034 10/09 A3012 RMK AO2
Loading
Personal Weather Stations






























Interactive Weather Map
Tropical Storm Tracking
New forecast layout! Learn more

10-Day Weather Forecast

Advertisements
Track Severe Weather on mobile